Time;durP1;ratioP1;P1;durP2;ratioP2;P2;SDS_P1;SDS_P2;PMS_P1;PMS_P2;Temp;Humidity;BMP_temperature;BMP_pressure;BME280_temperature;BME280_humidity;BME280_pressure;Samples;Min_cycle;Max_cycle;Signal;HPM_P1;HPM_P2
2021/10/28 00:13:38;;;;;;;22.02;12.63;;;;;;;;;;10337372;28;20117;-78
2021/10/28 00:18:41;;;;;;;20.75;12.88;;;;;;;;;;10335004;28;20423;-78
2021/10/28 00:23:47;;;;;;;15.88;11.52;;;;;;;;;;10335384;28;20070;-78
2021/10/28 00:28:47;;;;;;;15.03;12.40;;;;;;;;;;10337593;28;20034;-78
2021/10/28 00:33:48;;;;;;;30.05;12.02;;;;;;;;;;10335501;28;20463;-78
2021/10/28 00:38:48;;;;;;;13.10;11.82;;;;;;;;;;10335435;28;20384;-78
2021/10/28 00:43:49;;;;;;;13.52;11.80;;;;;;;;;;10333931;28;20034;-78
2021/10/28 00:48:50;;;;;;;23.10;11.38;;;;;;;;;;10334531;28;20058;-78
2021/10/28 00:53:50;;;;;;;16.92;12.10;;;;;;;;;;10335976;28;20042;-78
2021/10/28 00:58:50;;;;;;;16.23;12.55;;;;;;;;;;10335302;28;20048;-79
2021/10/28 01:03:51;;;;;;;19.77;11.82;;;;;;;;;;10349742;28;20026;-78
2021/10/28 01:08:51;;;;;;;11.73;10.45;;;;;;;;;;10334733;28;20161;-78
2021/10/28 01:13:52;;;;;;;14.85;11.40;;;;;;;;;;10335905;28;20403;-79
2021/10/28 01:18:52;;;;;;;23.08;13.30;;;;;;;;;;10333604;28;20026;-78
2021/10/28 01:23:52;;;;;;;16.98;13.65;;;;;;;;;;10333551;28;20027;-78
2021/10/28 01:28:56;;;;;;;24.95;11.50;;;;;;;;;;10333792;28;20034;-78
2021/10/28 01:33:57;;;;;;;21.10;14.52;;;;;;;;;;10333846;28;20022;-78
2021/10/28 01:38:57;;;;;;;18.42;11.80;;;;;;;;;;10333911;28;20113;-79
2021/10/28 01:43:57;;;;;;;38.08;13.80;;;;;;;;;;10348314;28;20040;-79
2021/10/28 01:48:58;;;;;;;17.73;12.25;;;;;;;;;;10333544;28;20034;-78
2021/10/28 01:53:58;;;;;;;23.17;13.80;;;;;;;;;;10334741;28;20408;-78
2021/10/28 01:58:58;;;;;;;21.85;12.75;;;;;;;;;;10348117;28;20105;-78
2021/10/28 02:03:58;;;;;;;26.10;13.80;;;;;;;;;;10332829;28;20480;-79
2021/10/28 02:08:59;;;;;;;18.95;14.55;;;;;;;;;;10331883;28;20061;-79
2021/10/28 02:13:59;;;;;;;21.50;14.60;;;;;;;;;;10332678;28;20027;-79
2021/10/28 02:18:59;;;;;;;22.58;13.77;;;;;;;;;;10333347;28;20028;-78
2021/10/28 02:24:00;;;;;;;22.77;13.98;;;;;;;;;;10331833;28;20057;-78
2021/10/28 02:29:02;;;;;;;22.38;13.40;;;;;;;;;;10334328;28;20101;-78
2021/10/28 02:34:02;;;;;;;24.20;14.75;;;;;;;;;;10340389;28;20018;-78
2021/10/28 02:39:43;;;;;;;23.33;13.43;;;;;;;;;;10355091;28;20031;-75
2021/10/28 02:44:46;;;;;;;23.05;15.85;;;;;;;;;;10339074;28;20066;-78
2021/10/28 02:49:46;;;;;;;38.35;17.73;;;;;;;;;;10340831;28;20038;-78
2021/10/28 02:54:46;;;;;;;32.38;17.40;;;;;;;;;;10339875;28;20118;-78
2021/10/28 02:59:47;;;;;;;23.10;16.58;;;;;;;;;;10338493;28;20031;-78
2021/10/28 03:04:47;;;;;;;22.85;14.98;;;;;;;;;;10337562;28;20365;-78
2021/10/28 03:09:47;;;;;;;19.52;15.40;;;;;;;;;;10338797;28;20084;-78
2021/10/28 03:14:55;;;;;;;24.45;16.67;;;;;;;;;;10339262;28;20110;-78
2021/10/28 03:30:24;;;;;;;25.35;17.58;;;;;;;;;;10354796;28;20035;-78
2021/10/28 03:35:25;;;;;;;23.45;16.73;;;;;;;;;;10338855;28;20033;-78
2021/10/28 04:07:06;;;;;;;25.15;15.32;;;;;;;;;;10334586;28;20063;-78
2021/10/28 04:33:22;;;;;;;21.88;14.88;;;;;;;;;;10347799;28;20027;-78
2021/10/28 04:38:22;;;;;;;33.97;15.20;;;;;;;;;;10334163;28;20430;-79
2021/10/28 04:43:23;;;;;;;21.73;13.40;;;;;;;;;;10334953;28;20038;-79
2021/10/28 04:48:23;;;;;;;20.45;15.75;;;;;;;;;;10335695;28;20034;-77
2021/10/28 04:53:23;;;;;;;22.83;15.07;;;;;;;;;;10334055;28;20379;-78
2021/10/28 04:58:24;;;;;;;30.65;16.20;;;;;;;;;;10334734;28;20030;-77
2021/10/28 05:03:24;;;;;;;23.40;14.77;;;;;;;;;;10339141;28;20034;-75
2021/10/28 05:08:24;;;;;;;20.88;15.05;;;;;;;;;;10332751;28;20474;-75
2021/10/28 05:13:25;;;;;;;25.15;14.65;;;;;;;;;;10334314;28;20035;-76
2021/10/28 05:18:25;;;;;;;19.15;13.75;;;;;;;;;;10334326;28;20586;-83
2021/10/28 05:23:25;;;;;;;23.60;14.48;;;;;;;;;;10334261;28;20031;-79
2021/10/28 05:28:26;;;;;;;18.30;15.18;;;;;;;;;;10332857;28;20048;-79
2021/10/28 05:33:26;;;;;;;23.38;14.73;;;;;;;;;;10332638;28;20153;-80
2021/10/28 05:38:26;;;;;;;19.23;14.38;;;;;;;;;;10332587;28;20180;-80
2021/10/28 05:43:26;;;;;;;17.65;14.18;;;;;;;;;;10332849;28;20388;-80
2021/10/28 05:48:27;;;;;;;28.23;15.77;;;;;;;;;;10333025;28;20041;-79
2021/10/28 05:53:27;;;;;;;20.00;15.13;;;;;;;;;;10333410;28;20061;-79
2021/10/28 05:58:27;;;;;;;19.90;13.43;;;;;;;;;;10348714;28;20046;-79
2021/10/28 06:03:28;;;;;;;18.08;14.05;;;;;;;;;;10350670;28;20038;-79
2021/10/28 06:08:28;;;;;;;19.15;12.10;;;;;;;;;;10340800;28;20392;-79
2021/10/28 06:13:29;;;;;;;24.40;14.32;;;;;;;;;;10340849;28;20037;-80
2021/10/28 06:23:29;;;;;;;15.05;13.00;;;;;;;;;;10355706;28;20495;-79
2021/10/28 06:28:30;;;;;;;14.50;11.98;;;;;;;;;;10339683;28;20040;-79
2021/10/28 06:33:34;;;;;;;16.73;11.35;;;;;;;;;;10340069;28;20022;-80
2021/10/28 06:38:35;;;;;;;15.93;12.70;;;;;;;;;;10339340;28;20034;-79
2021/10/28 06:43:35;;;;;;;18.40;12.27;;;;;;;;;;10339916;28;20085;-80
2021/10/28 06:48:36;;;;;;;14.10;12.70;;;;;;;;;;10338390;28;20096;-80
2021/10/28 06:53:44;;;;;;;19.30;11.15;;;;;;;;;;10339527;28;20030;-80
2021/10/28 07:04:03;;;;;;;14.38;10.55;;;;;;;;;;10351896;28;20030;-79
2021/10/28 07:09:18;;;;;;;12.50;11.23;;;;;;;;;;10354134;28;20499;-79
2021/10/28 07:14:19;;;;;;;15.10;11.52;;;;;;;;;;10337958;28;20122;-79
2021/10/28 07:35:31;;;;;;;14.55;10.30;;;;;;;;;;10337369;28;20101;-79
2021/10/28 08:22:50;;;;;;;13.23;6.97;;;;;;;;;;10336341;28;20034;-79
2021/10/28 08:33:09;;;;;;;11.05;6.90;;;;;;;;;;10335397;28;20042;-79
2021/10/28 08:38:09;;;;;;;10.93;7.10;;;;;;;;;;10350374;28;20029;-79
2021/10/28 08:43:10;;;;;;;10.18;5.70;;;;;;;;;;10334874;28;20066;-79
2021/10/28 08:48:10;;;;;;;12.70;7.32;;;;;;;;;;10350555;28;20045;-79
2021/10/28 09:19:46;;;;;;;9.23;6.22;;;;;;;;;;10334217;28;20109;-79
2021/10/28 09:25:11;;;;;;;9.30;5.55;;;;;;;;;;10346858;28;20109;-79
2021/10/28 09:30:21;;;;;;;8.52;6.35;;;;;;;;;;10335109;28;20038;-80
2021/10/28 09:51:35;;;;;;;7.53;6.10;;;;;;;;;;10342372;28;20456;-79
2021/10/28 10:02:10;;;;;;;7.50;5.82;;;;;;;;;;10341203;28;20030;-79
2021/10/28 10:07:11;;;;;;;11.52;6.63;;;;;;;;;;10355982;28;20053;-80
2021/10/28 10:12:11;;;;;;;13.15;6.07;;;;;;;;;;10341043;28;20031;-79
2021/10/28 10:17:12;;;;;;;7.97;5.97;;;;;;;;;;10340792;28;20026;-79
2021/10/28 10:22:38;;;;;;;6.70;5.83;;;;;;;;;;10340428;28;20272;-79
2021/10/28 11:23:01;;;;;;;8.63;6.25;;;;;;;;;;10337632;28;20071;-79
2021/10/28 13:04:11;;;;;;;6.40;4.80;;;;;;;;;;10334263;28;20034;-79
2021/10/28 13:36:06;;;;;;;5.82;5.25;;;;;;;;;;10346894;28;20069;-79
2021/10/28 14:18:50;;;;;;;11.75;4.82;;;;;;;;;;10332816;28;20038;-79
2021/10/28 15:00:53;;;;;;;11.18;4.18;;;;;;;;;;10339370;28;20459;-78
2021/10/28 16:25:17;;;;;;;8.40;5.60;;;;;;;;;;10348778;28;20399;-79
2021/10/28 16:30:17;;;;;;;9.23;4.45;;;;;;;;;;10350833;28;20034;-79
2021/10/28 16:35:17;;;;;;;15.00;5.63;;;;;;;;;;10336352;28;20422;-78
2021/10/28 16:40:18;;;;;;;6.63;5.60;;;;;;;;;;10335781;28;20045;-78
2021/10/28 16:45:18;;;;;;;8.48;5.55;;;;;;;;;;10349969;28;20097;-78
2021/10/28 16:50:18;;;;;;;5.72;4.60;;;;;;;;;;10333801;28;20065;-78
2021/10/28 16:55:18;;;;;;;8.02;4.53;;;;;;;;;;10333593;28;20058;-78
2021/10/28 17:00:19;;;;;;;7.22;5.20;;;;;;;;;;10333866;28;20031;-78
2021/10/28 17:05:19;;;;;;;5.90;4.47;;;;;;;;;;10335068;28;20069;-78
2021/10/28 17:10:20;;;;;;;4.90;4.30;;;;;;;;;;10334310;28;20041;-78
2021/10/28 17:15:20;;;;;;;8.45;4.80;;;;;;;;;;10334444;28;20053;-78
2021/10/28 17:20:20;;;;;;;4.40;4.07;;;;;;;;;;10334283;28;20030;-78
2021/10/28 17:25:21;;;;;;;9.90;5.40;;;;;;;;;;10333632;28;20427;-78
2021/10/28 17:30:22;;;;;;;9.85;4.55;;;;;;;;;;10350285;28;20081;-79
2021/10/28 17:35:23;;;;;;;5.55;4.15;;;;;;;;;;10336681;28;20077;-78
2021/10/28 17:40:26;;;;;;;9.77;5.15;;;;;;;;;;10333085;28;20060;-78
2021/10/28 17:45:29;;;;;;;4.65;4.10;;;;;;;;;;10334105;28;20033;-78
2021/10/28 17:50:29;;;;;;;7.05;4.57;;;;;;;;;;10334427;28;20031;-78
2021/10/28 17:55:29;;;;;;;4.78;4.32;;;;;;;;;;10334549;28;20037;-78
2021/10/28 18:00:30;;;;;;;8.25;4.25;;;;;;;;;;10336004;28;20030;-79
2021/10/28 18:05:30;;;;;;;7.25;5.15;;;;;;;;;;10340459;28;20060;-78
2021/10/28 18:10:30;;;;;;;12.13;5.45;;;;;;;;;;10341141;28;20435;-78
2021/10/28 18:15:31;;;;;;;7.32;5.22;;;;;;;;;;10341461;28;20027;-78
2021/10/28 18:20:31;;;;;;;7.10;5.25;;;;;;;;;;10340690;28;20050;-78
2021/10/28 18:25:32;;;;;;;7.28;5.78;;;;;;;;;;10339185;28;20026;-78
2021/10/28 18:30:36;;;;;;;13.77;6.93;;;;;;;;;;10338603;28;20029;-79
2021/10/28 18:35:37;;;;;;;12.82;5.85;;;;;;;;;;10340228;28;20030;-79
2021/10/28 18:40:38;;;;;;;8.05;7.03;;;;;;;;;;10340925;28;20460;-77
2021/10/28 18:45:38;;;;;;;5.57;4.57;;;;;;;;;;10340843;28;20361;-78
2021/10/28 18:50:38;;;;;;;11.25;6.30;;;;;;;;;;10337679;28;20584;-79
2021/10/28 18:55:39;;;;;;;5.70;5.20;;;;;;;;;;10339435;28;20077;-79
2021/10/28 19:00:39;;;;;;;7.97;5.03;;;;;;;;;;10338812;28;20044;-77
2021/10/28 19:05:40;;;;;;;6.20;5.65;;;;;;;;;;10338750;28;20050;-78
2021/10/28 19:10:40;;;;;;;8.75;6.43;;;;;;;;;;10353065;28;20030;-77
2021/10/28 19:15:40;;;;;;;9.70;6.50;;;;;;;;;;10338472;28;20093;-75
2021/10/28 19:20:40;;;;;;;6.32;5.38;;;;;;;;;;10336746;28;20121;-76
2021/10/28 19:25:41;;;;;;;7.40;5.68;;;;;;;;;;10352431;28;20081;-76
2021/10/28 19:30:51;;;;;;;6.43;5.90;;;;;;;;;;10337724;28;20023;-78
2021/10/28 19:35:57;;;;;;;6.32;4.60;;;;;;;;;;10338017;28;20030;-74
2021/10/28 19:51:04;;;;;;;7.33;6.00;;;;;;;;;;10337515;28;20117;-77
2021/10/28 19:56:37;;;;;;;6.45;5.70;;;;;;;;;;10352819;28;20113;-75
2021/10/28 20:01:37;;;;;;;8.57;6.20;;;;;;;;;;10347496;28;20084;-77
2021/10/28 20:22:35;;;;;;;9.73;5.78;;;;;;;;;;10349309;28;20130;-78
2021/10/28 20:27:36;;;;;;;9.07;6.18;;;;;;;;;;10350907;28;20089;-76
2021/10/28 20:32:36;;;;;;;12.20;6.28;;;;;;;;;;10335174;28;20525;-78
2021/10/28 20:37:37;;;;;;;7.03;6.32;;;;;;;;;;10349868;28;20460;-77
2021/10/28 20:42:39;;;;;;;7.18;6.43;;;;;;;;;;10333734;28;20117;-78
2021/10/28 20:47:40;;;;;;;12.70;5.78;;;;;;;;;;10334654;28;20033;-77
2021/10/28 20:52:41;;;;;;;13.98;6.93;;;;;;;;;;10349976;28;20026;-77
2021/10/28 20:57:42;;;;;;;8.60;6.82;;;;;;;;;;10334810;28;20030;-76
2021/10/28 21:02:42;;;;;;;7.68;5.90;;;;;;;;;;10334171;28;20062;-78
2021/10/28 21:07:43;;;;;;;6.82;5.70;;;;;;;;;;10334280;28;20057;-78
2021/10/28 21:12:43;;;;;;;8.50;5.72;;;;;;;;;;10336044;28;20050;-77
2021/10/28 21:17:44;;;;;;;5.85;5.38;;;;;;;;;;10333625;28;20045;-78
2021/10/28 21:22:44;;;;;;;10.98;6.18;;;;;;;;;;10334902;28;20534;-77
2021/10/28 21:27:44;;;;;;;10.05;5.93;;;;;;;;;;10334050;28;20114;-78
2021/10/28 21:32:44;;;;;;;8.93;7.10;;;;;;;;;;10334921;28;20396;-78
2021/10/28 21:37:44;;;;;;;9.18;7.50;;;;;;;;;;10342007;28;20038;-78
2021/10/28 21:42:45;;;;;;;18.27;6.90;;;;;;;;;;10342998;28;20148;-78
2021/10/28 21:47:47;;;;;;;8.73;5.93;;;;;;;;;;10356597;28;20030;-77
2021/10/28 21:52:50;;;;;;;6.93;6.13;;;;;;;;;;10342980;28;20031;-77
2021/10/28 21:58:02;;;;;;;7.00;6.18;;;;;;;;;;10356416;28;20093;-78
2021/10/28 22:29:15;;;;;;;9.63;7.20;;;;;;;;;;10342099;28;20484;-77
2021/10/28 22:34:16;;;;;;;7.40;5.95;;;;;;;;;;10340839;28;20034;-78
2021/10/28 22:39:24;;;;;;;14.93;6.57;;;;;;;;;;10355327;28;20042;-77
2021/10/28 22:44:24;;;;;;;8.40;6.80;;;;;;;;;;10340451;28;20037;-77
2021/10/28 22:49:25;;;;;;;7.97;6.63;;;;;;;;;;10339711;28;20117;-77
2021/10/28 22:54:25;;;;;;;6.18;5.68;;;;;;;;;;10339811;28;20440;-78
2021/10/28 22:59:26;;;;;;;7.85;6.35;;;;;;;;;;10355239;28;20113;-79
2021/10/28 23:04:44;;;;;;;20.38;7.38;;;;;;;;;;10354421;28;20026;-77
2021/10/28 23:25:18;;;;;;;10.73;8.05;;;;;;;;;;10319452;28;20050;-77
2021/10/28 23:30:19;;;;;;;12.63;7.38;;;;;;;;;;10338875;28;20026;-78
2021/10/28 23:35:19;;;;;;;12.00;9.95;;;;;;;;;;10338213;28;20113;-78
2021/10/28 23:40:19;;;;;;;14.15;11.27;;;;;;;;;;10353253;28;20081;-78
2021/10/28 23:45:19;;;;;;;10.73;8.07;;;;;;;;;;10337864;28;20361;-78
2021/10/28 23:50:19;;;;;;;16.30;7.80;;;;;;;;;;10337055;28;20471;-78
2021/10/28 23:55:20;;;;;;;10.48;6.90;;;;;;;;;;10337342;28;20030;-78
